Time;durP1;ratioP1;P1;durP2;ratioP2;P2;SDS_P1;SDS_P2;PMS_P1;PMS_P2;Temp;Humidity;BMP_temperature;BMP_pressure;BME280_temperature;BME280_humidity;BME280_pressure;Samples;Min_cycle;Max_cycle;Signal;HPM_P1;HPM_P2
2023/01/07 00:00:49;;;;;;;1.77;1.38;;;11.10;91.80;;;;;;5136715;28;20039;-76
2023/01/07 00:03:15;;;;;;;3.15;1.70;;;11.10;91.80;;;;;;5083790;28;20039;-76
2023/01/07 00:05:42;;;;;;;2.83;1.60;;;11.10;91.80;;;;;;5118118;28;20027;-75
2023/01/07 00:08:07;;;;;;;2.15;1.70;;;11.10;91.80;;;;;;5136449;28;20039;-76
2023/01/07 00:10:34;;;;;;;2.13;1.60;;;11.10;91.80;;;;;;5117794;28;20058;-76
2023/01/07 00:13:00;;;;;;;2.70;1.63;;;11.10;91.90;;;;;;5136026;28;20043;-76
2023/01/07 00:15:26;;;;;;;2.00;1.40;;;11.10;91.90;;;;;;5136188;28;20481;-75
2023/01/07 00:17:52;;;;;;;2.45;1.40;;;11.10;91.90;;;;;;5136283;28;20433;-76
2023/01/07 00:20:17;;;;;;;2.15;1.38;;;11.00;91.90;;;;;;5117400;28;20043;-75
2023/01/07 00:22:43;;;;;;;2.08;1.40;;;11.00;92.00;;;;;;5117971;28;20039;-76
2023/01/07 00:25:09;;;;;;;2.65;1.67;;;11.00;92.00;;;;;;5083564;28;20367;-76
2023/01/07 00:27:34;;;;;;;2.58;1.60;;;11.00;92.10;;;;;;5100382;28;20035;-76
2023/01/07 00:30:00;;;;;;;1.52;1.20;;;10.90;92.00;;;;;;5135930;28;20046;-76
2023/01/07 00:32:50;;;;;;;2.25;1.42;;;10.90;92.00;;;;;;5100459;28;20035;-76
2023/01/07 00:35:27;;;;;;;1.90;1.30;;;10.90;92.10;;;;;;5135564;28;20108;-76
2023/01/07 00:37:54;;;;;;;1.58;1.17;;;10.80;92.10;;;;;;5119612;28;20066;-76
2023/01/07 00:40:20;;;;;;;1.90;1.40;;;10.80;92.10;;;;;;5117470;28;20139;-76
2023/01/07 00:42:53;;;;;;;2.33;1.52;;;10.80;92.10;;;;;;5135521;28;20050;-76
2023/01/07 00:45:24;;;;;;;1.67;1.10;;;10.80;92.10;;;;;;5135714;28;20035;-76
2023/01/07 00:47:53;;;;;;;1.83;1.17;;;10.70;92.20;;;;;;5117508;28;20040;-76
2023/01/07 00:50:21;;;;;;;2.10;1.45;;;10.70;92.20;;;;;;5100986;28;20786;-76
2023/01/07 00:52:47;;;;;;;1.73;1.35;;;10.70;92.20;;;;;;5117389;28;20058;-76
2023/01/07 00:55:14;;;;;;;2.47;1.40;;;10.70;92.20;;;;;;5116894;28;20047;-75
2023/01/07 00:57:41;;;;;;;2.30;1.40;;;10.70;92.20;;;;;;5117058;28;20050;-76
2023/01/07 01:00:09;;;;;;;2.20;1.60;;;10.70;92.20;;;;;;5135714;28;20050;-76
2023/01/07 01:02:34;;;;;;;2.15;1.58;;;10.70;92.10;;;;;;5134765;28;20489;-76
2023/01/07 01:05:00;;;;;;;2.85;1.50;;;10.70;92.10;;;;;;5135046;28;20123;-76
2023/01/07 01:07:25;;;;;;;3.10;1.70;;;10.70;92.10;;;;;;5135306;28;20069;-76
2023/01/07 01:09:51;;;;;;;2.65;1.63;;;10.70;92.10;;;;;;5133668;27;20031;-76
2023/01/07 01:12:17;;;;;;;2.92;1.50;;;10.70;92.10;;;;;;5116649;28;20047;-76
2023/01/07 01:14:42;;;;;;;2.42;1.50;;;10.70;92.10;;;;;;5116545;28;20054;-76
2023/01/07 01:17:08;;;;;;;3.15;1.60;;;10.70;92.10;;;;;;5116677;28;20455;-76
2023/01/07 01:19:34;;;;;;;2.50;1.70;;;10.70;92.10;;;;;;5134953;28;20039;-76
2023/01/07 01:21:59;;;;;;;2.08;1.52;;;10.70;92.10;;;;;;5099513;28;20092;-76
2023/01/07 01:24:25;;;;;;;2.15;1.50;;;10.70;92.10;;;;;;5116804;28;20132;-76
2023/01/07 01:26:50;;;;;;;2.33;1.80;;;10.70;92.10;;;;;;5099382;28;20070;-76
2023/01/07 01:29:16;;;;;;;2.80;1.60;;;10.70;92.30;;;;;;5116409;28;20039;-76
2023/01/07 01:31:41;;;;;;;3.45;1.52;;;10.80;92.10;;;;;;5099198;28;20539;-76
2023/01/07 01:34:07;;;;;;;2.67;1.60;;;10.80;92.10;;;;;;5116269;28;20039;-75
2023/01/07 01:36:33;;;;;;;2.22;1.50;;;10.80;92.00;;;;;;5135186;28;20035;-75
2023/01/07 01:38:59;;;;;;;1.90;1.42;;;10.80;92.00;;;;;;5116741;28;20043;-76
2023/01/07 01:41:24;;;;;;;1.48;1.23;;;10.80;92.00;;;;;;5099028;28;20051;-75
2023/01/07 01:43:50;;;;;;;2.65;1.70;;;10.90;92.00;;;;;;5116632;28;20051;-76
2023/01/07 01:46:40;;;;;;;1.90;1.15;;;10.80;92.00;;;;;;5134416;28;20425;-76
2023/01/07 01:49:25;;;;;;;2.08;1.40;;;10.80;92.00;;;;;;5134390;28;20126;-75
2023/01/07 01:52:03;;;;;;;1.98;1.27;;;10.80;92.00;;;;;;5133211;28;20035;-76
2023/01/07 01:54:28;;;;;;;1.35;1.10;;;10.80;91.90;;;;;;5099438;28;20093;-76
2023/01/07 01:56:57;;;;;;;1.77;1.15;;;10.80;91.90;;;;;;5116466;28;20447;-75
2023/01/07 01:59:28;;;;;;;2.45;1.50;;;10.90;91.90;;;;;;5097556;28;20070;-76
2023/01/07 02:01:53;;;;;;;1.70;1.33;;;10.80;91.90;;;;;;5117017;28;20118;-76
2023/01/07 02:04:22;;;;;;;2.17;1.50;;;10.80;91.90;;;;;;5134213;28;20151;-76
2023/01/07 02:07:08;;;;;;;1.98;1.20;;;10.80;91.90;;;;;;5116537;28;20035;-76
2023/01/07 02:09:33;;;;;;;1.20;1.10;;;10.80;92.00;;;;;;5134006;28;20417;-76
2023/01/07 02:12:13;;;;;;;2.38;1.25;;;10.70;91.90;;;;;;5098677;28;20039;-76
2023/01/07 02:15:06;;;;;;;2.10;1.30;;;10.70;92.00;;;;;;5134386;28;20049;-76
2023/01/07 02:17:53;;;;;;;1.20;1.10;;;10.70;92.00;;;;;;5115962;28;20054;-76
2023/01/07 02:20:33;;;;;;;1.83;1.20;;;10.70;92.00;;;;;;5117695;28;20099;-76
2023/01/07 02:23:28;;;;;;;1.63;1.38;;;10.70;92.00;;;;;;5133829;28;20051;-76
2023/01/07 02:26:27;;;;;;;1.20;1.00;;;10.60;92.00;;;;;;5115226;28;20035;-75
2023/01/07 02:29:22;;;;;;;1.30;1.10;;;10.70;92.00;;;;;;5133814;28;20035;-76
2023/01/07 02:32:06;;;;;;;1.15;0.98;;;10.70;92.00;;;;;;5133645;28;20406;-76
2023/01/07 02:35:09;;;;;;;1.15;0.98;;;10.70;92.00;;;;;;5134194;28;20118;-76
2023/01/07 02:38:09;;;;;;;2.53;1.20;;;10.70;92.00;;;;;;5133651;28;20447;-76
2023/01/07 02:40:59;;;;;;;1.15;1.00;;;10.70;92.00;;;;;;5133556;28;20039;-75
2023/01/07 02:43:46;;;;;;;1.20;0.90;;;10.70;92.00;;;;;;5133204;28;20050;-76
2023/01/07 02:46:21;;;;;;;1.63;1.05;;;10.70;91.90;;;;;;5133842;28;20089;-75
2023/01/07 02:48:48;;;;;;;1.35;1.00;;;10.70;92.20;;;;;;5114947;28;20043;-75
2023/01/07 02:51:14;;;;;;;1.05;0.95;;;10.70;91.90;;;;;;5133366;28;20035;-75
2023/01/07 02:53:44;;;;;;;1.65;1.30;;;10.60;91.90;;;;;;5097836;28;20084;-75
2023/01/07 02:56:44;;;;;;;1.95;1.40;;;10.70;92.00;;;;;;5133916;28;20053;-75
2023/01/07 02:59:29;;;;;;;1.55;1.10;;;10.70;92.00;;;;;;5114978;28;20031;-76
2023/01/07 03:02:18;;;;;;;1.38;1.08;;;10.70;91.90;;;;;;5133737;28;20156;-76
2023/01/07 03:05:11;;;;;;;1.45;1.15;;;10.60;91.90;;;;;;5133467;28;20043;-75
2023/01/07 03:08:01;;;;;;;1.40;1.17;;;10.70;91.90;;;;;;5133027;28;20120;-75
2023/01/07 03:10:41;;;;;;;2.42;1.20;;;10.70;91.90;;;;;;5133037;28;20047;-76
2023/01/07 03:13:12;;;;;;;2.28;1.38;;;10.70;91.90;;;;;;5114486;28;20080;-76
2023/01/07 03:15:40;;;;;;;;;;;10.70;91.90;;;;;;5133674;28;20043;-75
2023/01/07 03:18:14;;;;;;;1.20;1.00;;;10.70;91.80;;;;;;5114602;28;20054;-75
2023/01/07 03:20:42;;;;;;;1.20;0.95;;;10.60;91.80;;;;;;5132907;28;20043;-75
2023/01/07 03:23:11;;;;;;;1.85;1.00;;;10.60;91.80;;;;;;5114250;28;20517;-75
2023/01/07 03:25:42;;;;;;;1.42;1.00;;;10.60;91.90;;;;;;5133330;28;20040;-75
2023/01/07 03:28:12;;;;;;;1.00;0.90;;;10.50;91.90;;;;;;5114344;28;20043;-76
2023/01/07 03:30:38;;;;;;;1.17;0.90;;;10.50;92.00;;;;;;5132833;28;20074;-75
2023/01/07 03:33:11;;;;;;;1.35;1.00;;;10.40;91.90;;;;;;5116737;28;20082;-76
2023/01/07 03:35:38;;;;;;;1.13;1.00;;;10.50;92.00;;;;;;5117865;28;20047;-75
2023/01/07 03:38:05;;;;;;;1.00;0.80;;;10.40;92.00;;;;;;5136150;28;20402;-76
2023/01/07 03:40:31;;;;;;;0.80;0.80;;;10.50;92.00;;;;;;5136435;28;20435;-75
2023/01/07 03:42:58;;;;;;;1.73;1.00;;;10.50;92.00;;;;;;5136081;28;20492;-75
2023/01/07 03:45:26;;;;;;;1.33;1.00;;;10.50;92.00;;;;;;5117962;28;20039;-75
2023/01/07 03:47:54;;;;;;;0.90;0.68;;;10.50;92.00;;;;;;5136476;28;20371;-76
2023/01/07 03:50:21;;;;;;;1.58;0.80;;;10.40;92.00;;;;;;5136746;28;20171;-75
2023/01/07 03:52:47;;;;;;;1.38;1.00;;;10.40;92.10;;;;;;5136439;28;20043;-75
2023/01/07 03:55:13;;;;;;;1.67;1.00;;;10.40;92.10;;;;;;5100851;28;20494;-75
2023/01/07 03:57:39;;;;;;;1.20;0.90;;;10.40;92.10;;;;;;5117535;28;20042;-76
2023/01/07 04:00:07;;;;;;;1.63;1.02;;;10.40;92.10;;;;;;5136414;28;20129;-76
2023/01/07 04:02:33;;;;;;;1.13;0.88;;;10.30;92.10;;;;;;5135919;28;20035;-75
2023/01/07 04:04:59;;;;;;;1.27;1.00;;;10.30;92.10;;;;;;5117723;28;20505;-76
2023/01/07 04:07:24;;;;;;;1.13;0.90;;;10.30;92.10;;;;;;5136291;28;20039;-76
2023/01/07 04:09:50;;;;;;;0.95;0.80;;;10.30;92.10;;;;;;5100474;28;20494;-75
2023/01/07 04:12:17;;;;;;;1.08;0.85;;;10.30;92.10;;;;;;5117527;28;20046;-76
2023/01/07 04:14:42;;;;;;;1.08;0.90;;;10.20;92.10;;;;;;5117984;28;20435;-76
2023/01/07 04:17:08;;;;;;;1.15;1.00;;;10.30;92.10;;;;;;5135735;28;20097;-76
2023/01/07 04:19:34;;;;;;;1.08;0.95;;;10.20;92.10;;;;;;5117415;28;20070;-76
2023/01/07 04:21:59;;;;;;;2.67;1.00;;;10.20;92.10;;;;;;5118035;28;20042;-76
2023/01/07 04:24:25;;;;;;;1.55;1.10;;;10.20;92.10;;;;;;5117949;28;20047;-76
2023/01/07 04:26:51;;;;;;;1.70;0.85;;;10.30;92.10;;;;;;5117563;28;20031;-75
2023/01/07 04:29:16;;;;;;;1.48;1.08;;;10.20;92.10;;;;;;5117381;28;20070;-76
2023/01/07 04:31:42;;;;;;;1.60;0.80;;;10.20;92.10;;;;;;5136049;28;20244;-75
2023/01/07 04:34:08;;;;;;;1.73;0.80;;;10.10;92.10;;;;;;5136215;28;20050;-75
2023/01/07 04:36:34;;;;;;;0.70;0.65;;;10.20;92.10;;;;;;5100334;28;20168;-75
2023/01/07 04:39:01;;;;;;;1.23;0.80;;;10.10;92.10;;;;;;5117208;28;20074;-75
2023/01/07 04:41:26;;;;;;;1.17;0.73;;;10.10;92.10;;;;;;5135457;28;20034;-75
2023/01/07 04:43:52;;;;;;;1.15;0.73;;;10.10;92.20;;;;;;5135283;27;20422;-75
2023/01/07 04:46:18;;;;;;;0.95;0.85;;;10.10;92.20;;;;;;5099874;28;20054;-75
2023/01/07 04:48:43;;;;;;;1.00;0.90;;;10.10;92.20;;;;;;5135190;28;20027;-75
2023/01/07 04:51:09;;;;;;;1.33;0.90;;;10.10;92.20;;;;;;5116946;28;20046;-75
2023/01/07 04:53:34;;;;;;;1.75;0.90;;;10.10;92.10;;;;;;5116825;28;20103;-75
2023/01/07 04:56:00;;;;;;;1.15;0.88;;;10.10;92.10;;;;;;5117280;28;20047;-75
2023/01/07 04:58:26;;;;;;;1.10;0.90;;;10.10;92.10;;;;;;5116727;28;20043;-76
2023/01/07 05:00:54;;;;;;;1.13;0.90;;;10.10;92.10;;;;;;5135526;28;20529;-76
2023/01/07 05:03:20;;;;;;;1.98;0.90;;;10.10;92.10;;;;;;5135341;28;20486;-76
2023/01/07 05:05:45;;;;;;;1.98;0.98;;;10.10;92.10;;;;;;5117185;28;20037;-75
2023/01/07 05:08:11;;;;;;;1.10;0.90;;;10.20;92.10;;;;;;5135425;28;20035;-75
2023/01/07 05:10:36;;;;;;;1.42;1.10;;;10.20;92.10;;;;;;5135117;28;20067;-75
2023/01/07 05:13:04;;;;;;;1.35;0.88;;;10.20;92.10;;;;;;5116807;28;20039;-76
2023/01/07 05:15:30;;;;;;;1.05;0.82;;;10.20;92.00;;;;;;5135313;28;20050;-75
2023/01/07 05:17:56;;;;;;;0.90;0.80;;;10.20;92.00;;;;;;5116579;28;20494;-75
2023/01/07 05:20:21;;;;;;;1.17;0.80;;;10.20;92.00;;;;;;5135336;28;20043;-75
2023/01/07 05:22:47;;;;;;;0.70;0.70;;;10.20;92.00;;;;;;5116507;28;20059;-75
2023/01/07 05:25:12;;;;;;;1.10;0.70;;;10.20;92.00;;;;;;5134946;28;20115;-75
2023/01/07 05:27:38;;;;;;;0.93;0.70;;;10.20;92.00;;;;;;5116572;28;20180;-76
2023/01/07 05:30:05;;;;;;;0.85;0.73;;;10.30;92.00;;;;;;5135381;28;20066;-76
2023/01/07 05:32:30;;;;;;;0.75;0.70;;;10.30;92.00;;;;;;5134704;28;20088;-75
2023/01/07 05:34:56;;;;;;;1.05;0.80;;;10.30;91.90;;;;;;5099352;28;20032;-75
2023/01/07 05:37:22;;;;;;;0.77;0.70;;;10.30;91.90;;;;;;5135107;28;20508;-76
2023/01/07 05:39:47;;;;;;;1.55;1.10;;;10.30;91.90;;;;;;5116174;28;20071;-76
2023/01/07 05:42:13;;;;;;;0.80;0.77;;;10.30;91.90;;;;;;5116369;28;20031;-76
2023/01/07 05:44:39;;;;;;;0.80;0.80;;;10.30;91.90;;;;;;5116317;28;20398;-76
2023/01/07 05:47:04;;;;;;;0.90;0.80;;;10.30;91.90;;;;;;5116408;28;20039;-76
2023/01/07 05:49:30;;;;;;;1.40;0.70;;;10.30;91.90;;;;;;5116433;28;20071;-76
2023/01/07 05:51:55;;;;;;;1.35;0.90;;;10.30;91.80;;;;;;5116246;28;20053;-75
2023/01/07 05:54:21;;;;;;;0.95;0.77;;;10.40;91.80;;;;;;5133951;27;20043;-75
2023/01/07 05:56:47;;;;;;;1.38;0.90;;;10.40;91.80;;;;;;5134400;28;20043;-75
2023/01/07 05:59:12;;;;;;;1.83;0.93;;;10.40;91.80;;;;;;5135000;28;20394;-75
2023/01/07 06:01:38;;;;;;;1.10;0.95;;;10.40;91.80;;;;;;5116188;28;20074;-75
2023/01/07 06:04:04;;;;;;;1.50;1.02;;;10.40;91.80;;;;;;5116019;28;20050;-76
2023/01/07 06:06:29;;;;;;;1.75;1.00;;;10.30;91.80;;;;;;5116107;28;20035;-76
2023/01/07 06:08:55;;;;;;;0.88;0.70;;;10.40;91.80;;;;;;5134334;28;20092;-75
2023/01/07 06:11:20;;;;;;;1.25;0.77;;;10.40;91.80;;;;;;5134129;28;20043;-75
2023/01/07 06:13:46;;;;;;;1.20;1.00;;;10.40;91.80;;;;;;5115878;28;20055;-75
2023/01/07 06:16:14;;;;;;;0.80;0.80;;;10.40;91.70;;;;;;5134613;28;20039;-75
2023/01/07 06:18:40;;;;;;;1.65;1.10;;;10.40;91.70;;;;;;5134201;28;20126;-76
2023/01/07 06:21:06;;;;;;;1.48;1.00;;;10.40;91.70;;;;;;5115503;28;20501;-75
2023/01/07 06:23:31;;;;;;;1.60;1.10;;;10.40;91.70;;;;;;5115439;28;20042;-75
2023/01/07 06:25:57;;;;;;;1.50;0.95;;;10.60;91.70;;;;;;5133911;28;20091;-75
2023/01/07 06:28:23;;;;;;;1.13;0.95;;;10.40;91.70;;;;;;5134466;28;20039;-75
2023/01/07 06:30:48;;;;;;;1.27;0.90;;;10.50;91.70;;;;;;5134099;28;20043;-75
2023/01/07 06:33:15;;;;;;;1.58;0.93;;;10.50;91.70;;;;;;5115678;28;20043;-76
2023/01/07 06:35:43;;;;;;;0.95;0.82;;;10.50;91.60;;;;;;5115498;28;20050;-75
2023/01/07 06:38:08;;;;;;;1.10;0.90;;;10.50;91.60;;;;;;5133643;28;20050;-75
2023/01/07 06:40:34;;;;;;;0.80;0.70;;;10.50;91.60;;;;;;5133705;28;20047;-75
2023/01/07 06:42:59;;;;;;;0.98;0.88;;;10.50;91.60;;;;;;5134144;28;20051;-75
2023/01/07 06:45:25;;;;;;;1.42;0.90;;;10.50;91.60;;;;;;5098465;28;20187;-75
2023/01/07 06:47:51;;;;;;;2.35;1.30;;;10.50;91.60;;;;;;5134210;28;20034;-75
2023/01/07 06:50:16;;;;;;;1.35;0.85;;;10.60;91.60;;;;;;5133499;28;20043;-75
2023/01/07 06:52:42;;;;;;;2.13;1.00;;;10.60;91.50;;;;;;5115152;28;20546;-76
2023/01/07 06:55:08;;;;;;;1.98;1.00;;;10.60;91.50;;;;;;5133559;28;20038;-75
2023/01/07 06:57:34;;;;;;;1.50;1.02;;;10.60;91.40;;;;;;5133595;28;20114;-75
2023/01/07 07:00:00;;;;;;;1.05;0.80;;;10.60;91.40;;;;;;5133917;28;20070;-76
2023/01/07 07:02:27;;;;;;;1.65;0.80;;;10.70;91.40;;;;;;5133336;28;20046;-76
2023/01/07 07:04:53;;;;;;;1.77;1.00;;;10.60;91.30;;;;;;5115627;28;20501;-75
2023/01/07 07:07:20;;;;;;;1.30;1.10;;;10.60;91.30;;;;;;5133996;27;20023;-76
2023/01/07 07:09:45;;;;;;;2.15;1.10;;;10.60;91.30;;;;;;5115230;28;20443;-76
2023/01/07 07:12:12;;;;;;;1.52;1.20;;;10.70;91.30;;;;;;5133749;28;20043;-76
2023/01/07 07:14:38;;;;;;;1.23;0.95;;;10.60;91.20;;;;;;5115066;28;20031;-76
2023/01/07 07:17:04;;;;;;;1.50;0.95;;;10.70;91.20;;;;;;5133867;28;20039;-76
2023/01/07 07:19:30;;;;;;;1.08;0.98;;;10.60;91.20;;;;;;5133862;28;20047;-76
2023/01/07 07:21:56;;;;;;;1.25;0.75;;;10.60;91.20;;;;;;5115472;28;20095;-76
2023/01/07 07:24:21;;;;;;;1.10;0.90;;;10.60;91.20;;;;;;5133233;28;20418;-75
2023/01/07 07:26:47;;;;;;;1.25;0.90;;;10.70;91.30;;;;;;5114797;28;20031;-75
2023/01/07 07:29:13;;;;;;;1.08;0.80;;;10.60;91.20;;;;;;5133759;28;20050;-76
2023/01/07 07:31:38;;;;;;;0.95;0.80;;;10.60;91.20;;;;;;5133754;28;20164;-75
2023/01/07 07:34:04;;;;;;;0.68;0.60;;;10.60;91.20;;;;;;5115021;28;20070;-75
2023/01/07 07:36:30;;;;;;;1.83;1.00;;;10.60;91.20;;;;;;5133016;28;20043;-75
2023/01/07 07:38:56;;;;;;;1.13;0.90;;;10.60;91.20;;;;;;5114749;28;20054;-75
2023/01/07 07:41:22;;;;;;;1.70;1.00;;;10.60;91.10;;;;;;5114644;28;20051;-75
2023/01/07 07:43:48;;;;;;;1.33;0.88;;;10.60;91.10;;;;;;5132799;28;20103;-75
2023/01/07 07:46:14;;;;;;;0.70;0.70;;;10.60;91.10;;;;;;5132727;28;20039;-75
2023/01/07 07:48:40;;;;;;;0.77;0.70;;;10.60;91.10;;;;;;5097564;28;20444;-75
2023/01/07 07:51:05;;;;;;;0.75;0.65;;;10.60;91.00;;;;;;5132837;28;20031;-76
2023/01/07 07:53:31;;;;;;;1.10;0.80;;;10.60;91.00;;;;;;5114371;28;20043;-75
2023/01/07 07:55:57;;;;;;;1.95;0.80;;;10.70;91.00;;;;;;5114442;28;20039;-75
2023/01/07 07:58:22;;;;;;;1.50;0.93;;;10.70;91.00;;;;;;5114379;28;20130;-76
2023/01/07 08:00:48;;;;;;;0.60;0.60;;;10.70;91.00;;;;;;5132770;28;20050;-75
2023/01/07 08:03:14;;;;;;;0.52;0.52;;;10.60;90.90;;;;;;5114857;28;20146;-75
2023/01/07 08:05:42;;;;;;;0.65;0.50;;;10.60;90.90;;;;;;5132740;28;20419;-76
2023/01/07 08:08:10;;;;;;;1.55;0.77;;;10.60;90.90;;;;;;5114249;28;20082;-75
2023/01/07 08:10:37;;;;;;;0.77;0.77;;;10.60;90.90;;;;;;5132652;28;20082;-75
2023/01/07 08:13:03;;;;;;;0.60;0.50;;;10.60;90.90;;;;;;5132352;28;20042;-75
2023/01/07 08:15:29;;;;;;;0.77;0.70;;;10.60;90.90;;;;;;5132977;28;20386;-76
2023/01/07 08:17:59;;;;;;;0.70;0.65;;;10.70;90.90;;;;;;5114767;28;20050;-75
2023/01/07 08:20:24;;;;;;;0.90;0.50;;;10.70;90.90;;;;;;5136218;28;20096;-75
2023/01/07 08:22:50;;;;;;;0.50;0.47;;;10.60;90.80;;;;;;5100354;28;20514;-75
2023/01/07 08:25:16;;;;;;;0.77;0.45;;;10.60;90.80;;;;;;5117502;28;20035;-75
2023/01/07 08:27:41;;;;;;;0.43;0.43;;;10.70;90.80;;;;;;5136371;28;20039;-75
2023/01/07 08:30:07;;;;;;;0.47;0.47;;;10.70;90.80;;;;;;5117509;28;20666;-75
2023/01/07 08:32:33;;;;;;;1.33;0.80;;;10.70;90.80;;;;;;5117568;28;20509;-75
2023/01/07 08:34:59;;;;;;;0.40;0.40;;;10.80;90.80;;;;;;5136132;28;20075;-75
2023/01/07 08:37:24;;;;;;;0.55;0.52;;;10.70;90.70;;;;;;5135807;28;20045;-75
2023/01/07 08:39:50;;;;;;;0.50;0.50;;;10.70;90.70;;;;;;5135560;28;20047;-75
2023/01/07 08:42:15;;;;;;;0.50;0.50;;;10.70;90.70;;;;;;5117424;28;20070;-76
2023/01/07 08:44:41;;;;;;;0.63;0.63;;;10.70;90.70;;;;;;5116962;28;20043;-75
2023/01/07 08:47:07;;;;;;;0.50;0.50;;;10.70;90.70;;;;;;5136050;28;20523;-75
2023/01/07 08:49:32;;;;;;;0.50;0.50;;;10.70;90.60;;;;;;5135500;28;20031;-75
2023/01/07 08:51:58;;;;;;;0.70;0.60;;;10.80;90.60;;;;;;5117303;28;20504;-76
2023/01/07 08:54:23;;;;;;;0.50;0.50;;;10.70;90.60;;;;;;5135514;28;20043;-75
2023/01/07 08:56:49;;;;;;;0.60;0.60;;;10.80;90.60;;;;;;5100328;28;20088;-75
2023/01/07 08:59:15;;;;;;;0.77;0.60;;;10.80;90.60;;;;;;5135978;28;20382;-75
2023/01/07 09:01:40;;;;;;;0.50;0.50;;;10.80;90.50;;;;;;5135375;28;20043;-75
2023/01/07 09:04:06;;;;;;;0.60;0.57;;;10.80;90.50;;;;;;5099883;28;20039;-75
2023/01/07 09:06:31;;;;;;;0.50;0.50;;;10.80;90.40;;;;;;5135501;28;20035;-76
2023/01/07 09:08:57;;;;;;;0.30;0.30;;;10.80;90.40;;;;;;5135433;28;20031;-75
2023/01/07 09:11:23;;;;;;;1.10;0.73;;;10.90;90.40;;;;;;5117531;28;20142;-75
2023/01/07 09:13:48;;;;;;;0.60;0.50;;;10.90;90.40;;;;;;5135861;28;20477;-75
2023/01/07 09:16:14;;;;;;;0.40;0.40;;;10.90;90.40;;;;;;5135058;28;20031;-73
2023/01/07 09:18:39;;;;;;;0.77;0.70;;;10.90;90.30;;;;;;5116846;28;20398;-75
2023/01/07 09:21:05;;;;;;;0.70;0.65;;;10.90;90.30;;;;;;5116488;28;20046;-75
2023/01/07 09:23:31;;;;;;;0.45;0.45;;;10.90;90.20;;;;;;5134911;28;20039;-76
2023/01/07 09:25:56;;;;;;;1.25;0.60;;;11.00;90.20;;;;;;5135163;28;20108;-75
2023/01/07 09:28:22;;;;;;;0.68;0.60;;;11.00;90.20;;;;;;5135468;28;20062;-75
2023/01/07 09:30:48;;;;;;;0.90;0.70;;;11.00;90.20;;;;;;5134228;27;20035;-75
2023/01/07 09:33:13;;;;;;;0.50;0.50;;;11.00;90.10;;;;;;5099409;28;20047;-75
2023/01/07 09:35:39;;;;;;;0.77;0.70;;;11.00;90.10;;;;;;5116393;28;20043;-76
2023/01/07 09:38:04;;;;;;;0.60;0.50;;;11.00;90.10;;;;;;5099189;28;20398;-75
2023/01/07 09:40:35;;;;;;;0.80;0.60;;;11.00;90.10;;;;;;5134550;28;20126;-75
2023/01/07 09:43:13;;;;;;;0.68;0.63;;;11.00;90.10;;;;;;5134830;28;20447;-75
2023/01/07 09:45:45;;;;;;;1.13;0.70;;;10.90;90.00;;;;;;5135215;28;20046;-76
2023/01/07 09:48:20;;;;;;;0.50;0.50;;;11.00;90.00;;;;;;5117050;28;20039;-75
2023/01/07 09:50:59;;;;;;;0.52;0.52;;;11.00;90.00;;;;;;5134753;28;20035;-76
2023/01/07 09:53:29;;;;;;;0.95;0.77;;;11.10;90.00;;;;;;5134570;28;20513;-76
2023/01/07 09:55:55;;;;;;;0.50;0.50;;;11.10;89.90;;;;;;5134567;28;20043;-75
2023/01/07 09:58:21;;;;;;;0.85;0.55;;;11.10;89.80;;;;;;5114371;28;20043;-75
2023/01/07 10:00:58;;;;;;;0.60;0.60;;;11.10;89.80;;;;;;5134909;28;20125;-75
2023/01/07 10:03:38;;;;;;;1.02;0.60;;;11.20;89.80;;;;;;5098790;28;20042;-75
2023/01/07 10:06:36;;;;;;;0.45;0.45;;;11.20;89.70;;;;;;5115797;28;20390;-75
2023/01/07 10:09:22;;;;;;;0.40;0.40;;;11.20;89.60;;;;;;5134054;28;20402;-75
2023/01/07 10:12:03;;;;;;;0.50;0.50;;;11.20;89.60;;;;;;5115973;28;20054;-75
2023/01/07 10:14:55;;;;;;;0.65;0.55;;;11.30;89.60;;;;;;5134284;28;20207;-76
2023/01/07 10:17:40;;;;;;;0.45;0.45;;;11.30;89.40;;;;;;5133882;28;20047;-76
2023/01/07 10:20:36;;;;;;;0.57;0.50;;;11.20;89.30;;;;;;5133941;28;20054;-75
2023/01/07 10:23:11;;;;;;;0.85;0.40;;;11.30;89.30;;;;;;5133828;28;20050;-75
2023/01/07 10:25:49;;;;;;;0.52;0.45;;;11.30;89.30;;;;;;5134456;28;20035;-75
2023/01/07 10:28:24;;;;;;;0.60;0.50;;;11.40;89.20;;;;;;5115457;28;20042;-75
2023/01/07 10:30:51;;;;;;;0.70;0.50;;;11.30;89.10;;;;;;5115457;28;20433;-75
2023/01/07 10:33:24;;;;;;;0.85;0.40;;;11.40;89.10;;;;;;5134375;28;20043;-75
2023/01/07 10:36:06;;;;;;;1.20;0.60;;;11.40;89.00;;;;;;5116826;28;20126;-75
2023/01/07 10:38:36;;;;;;;0.55;0.50;;;11.50;88.90;;;;;;5134217;28;20049;-75
2023/01/07 10:41:25;;;;;;;1.70;0.40;;;11.50;88.80;;;;;;5133436;27;20130;-75
2023/01/07 10:44:28;;;;;;;0.40;0.40;;;11.50;88.80;;;;;;5115727;28;20046;-75
2023/01/07 10:47:17;;;;;;;0.38;0.35;;;11.50;88.60;;;;;;5133599;28;20043;-75
2023/01/07 10:50:08;;;;;;;0.75;0.50;;;11.60;88.50;;;;;;5133738;28;20027;-75
2023/01/07 10:53:07;;;;;;;0.47;0.47;;;11.60;88.30;;;;;;5132356;28;20073;-75
2023/01/07 10:55:50;;;;;;;0.30;0.30;;;11.70;88.20;;;;;;5133359;28;20051;-75
2023/01/07 10:58:16;;;;;;;0.50;0.40;;;11.70;88.00;;;;;;5133742;28;20194;-75
2023/01/07 11:00:46;;;;;;;0.40;0.30;;;11.70;87.90;;;;;;5115367;28;20541;-75
2023/01/07 11:03:20;;;;;;;0.52;0.50;;;11.80;87.90;;;;;;5133553;28;20043;-75
2023/01/07 11:05:50;;;;;;;0.50;0.50;;;11.90;87.90;;;;;;5133281;28;20043;-75
2023/01/07 11:08:31;;;;;;;0.40;0.40;;;11.80;87.70;;;;;;5114747;28;20035;-75
2023/01/07 11:10:57;;;;;;;0.40;0.40;;;11.80;87.70;;;;;;5116437;28;20058;-75
2023/01/07 11:13:28;;;;;;;0.40;0.40;;;11.90;87.70;;;;;;5097923;28;20409;-75
2023/01/07 11:15:56;;;;;;;;;;;11.90;87.50;;;;;;5133703;28;20065;-75
2023/01/07 11:18:33;;;;;;;0.50;0.50;;;11.90;87.40;;;;;;5132959;28;19912;-75
2023/01/07 11:20:59;;;;;;;0.60;0.57;;;11.90;87.20;;;;;;5133543;28;20047;-75
2023/01/07 11:23:39;;;;;;;0.60;0.50;;;12.00;87.00;;;;;;5133407;28;20050;-75
2023/01/07 11:26:24;;;;;;;0.98;0.55;;;12.00;86.90;;;;;;5098358;28;20031;-75
2023/01/07 11:29:02;;;;;;;0.43;0.40;;;12.00;86.70;;;;;;5114600;28;20035;-75
2023/01/07 11:31:49;;;;;;;1.02;0.60;;;12.00;86.70;;;;;;5133017;28;20045;-75
2023/01/07 11:34:22;;;;;;;1.02;0.40;;;12.00;86.50;;;;;;5115272;28;20432;-75
2023/01/07 11:36:48;;;;;;;0.73;0.70;;;12.00;86.40;;;;;;5133046;28;20043;-75
2023/01/07 11:39:25;;;;;;;1.17;0.52;;;12.00;86.30;;;;;;5114691;28;20501;-75
2023/01/07 11:42:37;;;;;;;0.55;0.55;;;12.10;86.80;;;;;;5133778;28;20073;-75
2023/01/07 11:44:47;;;;;;;0.38;0.38;;;12.10;86.10;;;;;;5132568;28;20096;-75
2023/01/07 11:47:16;;;;;;;0.55;0.50;;;12.10;85.80;;;;;;5097702;28;20039;-76
2023/01/07 11:49:44;;;;;;;1.33;0.68;;;12.10;85.70;;;;;;5132929;28;20046;-76
2023/01/07 11:52:18;;;;;;;0.60;0.60;;;12.20;85.50;;;;;;5133109;27;20153;-76
2023/01/07 11:54:50;;;;;;;0.68;0.68;;;12.20;85.20;;;;;;5101460;28;20065;-76
2023/01/07 11:57:23;;;;;;;0.93;0.70;;;12.20;85.00;;;;;;5136658;28;20513;-76
2023/01/07 12:00:11;;;;;;;1.08;0.70;;;12.20;85.00;;;;;;5118086;28;20528;-76
2023/01/07 12:02:36;;;;;;;0.85;0.60;;;12.20;84.90;;;;;;5119517;28;20039;-76
2023/01/07 12:05:16;;;;;;;0.70;0.60;;;12.20;84.80;;;;;;5136487;28;20050;-76
2023/01/07 12:07:45;;;;;;;1.38;0.82;;;12.20;84.80;;;;;;5117963;28;20122;-76
2023/01/07 12:10:30;;;;;;;0.50;0.50;;;12.20;84.90;;;;;;5100798;28;20041;-76
2023/01/07 12:12:57;;;;;;;0.50;0.50;;;12.20;84.70;;;;;;5136446;28;20073;-75
2023/01/07 12:15:29;;;;;;;0.73;0.63;;;12.20;84.50;;;;;;5136610;28;20067;-76
2023/01/07 12:18:18;;;;;;;0.93;0.70;;;12.20;84.40;;;;;;5100486;28;20031;-76
2023/01/07 12:21:23;;;;;;;0.60;0.60;;;12.30;84.30;;;;;;5117544;28;20069;-76
2023/01/07 12:24:15;;;;;;;0.80;0.60;;;12.30;84.10;;;;;;5123380;28;20043;-75
2023/01/07 12:27:15;;;;;;;1.17;0.60;;;12.30;83.90;;;;;;5136010;28;20062;-76
2023/01/07 12:30:04;;;;;;;0.52;0.50;;;12.40;84.00;;;;;;5135818;28;20475;-78
2023/01/07 12:32:45;;;;;;;1.48;0.60;;;12.40;83.90;;;;;;5135831;28;20479;-76
2023/01/07 12:35:17;;;;;;;0.90;0.73;;;12.40;83.60;;;;;;5136452;28;20043;-75
2023/01/07 12:37:51;;;;;;;0.80;0.80;;;12.40;83.30;;;;;;5117281;28;20482;-75
2023/01/07 12:40:39;;;;;;;0.90;0.52;;;12.40;83.30;;;;;;5135936;28;20051;-75
2023/01/07 12:43:24;;;;;;;0.52;0.40;;;12.40;83.20;;;;;;5135431;28;20058;-75
2023/01/07 12:46:02;;;;;;;0.88;0.60;;;12.50;83.20;;;;;;5117647;28;20043;-75
2023/01/07 12:48:47;;;;;;;0.95;0.70;;;12.50;83.00;;;;;;5136138;28;20474;-76
2023/01/07 12:51:20;;;;;;;0.82;0.70;;;12.40;82.90;;;;;;5135561;28;20088;-74
2023/01/07 12:54:10;;;;;;;1.00;0.60;;;12.40;82.80;;;;;;5135541;28;20486;-73
2023/01/07 12:56:42;;;;;;;0.57;0.47;;;12.40;82.70;;;;;;5118140;28;20494;-75
2023/01/07 12:59:21;;;;;;;0.90;0.70;;;12.40;82.70;;;;;;5137028;28;20050;-75
2023/01/07 13:02:09;;;;;;;0.88;0.70;;;12.50;82.60;;;;;;5101921;28;20050;-76
2023/01/07 13:04:51;;;;;;;0.88;0.70;;;12.50;82.50;;;;;;5117062;28;20103;-77
2023/01/07 13:07:38;;;;;;;1.75;0.80;;;12.50;82.50;;;;;;5117354;28;20035;-77